createdAt,value
2023-01-19T00:00:28.455Z,12.43
2023-01-19T00:02:55.091Z,12.20
2023-01-19T00:05:21.867Z,12.93
2023-01-19T00:07:48.290Z,12.23
2023-01-19T00:10:15.088Z,11.75
2023-01-19T00:12:41.482Z,10.93
2023-01-19T00:15:08.436Z,11.13
2023-01-19T00:17:34.809Z,9.80
2023-01-19T00:20:01.181Z,10.70
2023-01-19T00:22:27.576Z,9.68
2023-01-19T00:24:53.999Z,8.90
2023-01-19T00:27:20.415Z,8.50
2023-01-19T00:29:46.768Z,9.13
2023-01-19T00:32:13.159Z,9.43
2023-01-19T00:34:42.527Z,9.00
2023-01-19T00:37:09.795Z,8.57
2023-01-19T00:39:36.164Z,8.55
2023-01-19T00:42:21.298Z,8.50
2023-01-19T00:44:47.742Z,8.18
2023-01-19T00:47:14.190Z,9.02
2023-01-19T00:49:40.571Z,8.45
2023-01-19T00:52:07.107Z,8.60
2023-01-19T00:54:33.519Z,7.70
2023-01-19T00:56:59.950Z,7.38
2023-01-19T00:59:26.348Z,7.65
2023-01-19T01:01:53.069Z,7.13
2023-01-19T01:04:19.640Z,6.18
2023-01-19T01:06:46.196Z,5.47
2023-01-19T01:09:12.557Z,5.18
2023-01-19T01:11:40.432Z,5.13
2023-01-19T01:14:08.116Z,4.20
2023-01-19T01:16:34.617Z,3.90
2023-01-19T01:19:01.047Z,3.47
2023-01-19T01:21:27.624Z,3.72
2023-01-19T01:23:54.267Z,3.75
2023-01-19T01:26:20.693Z,3.70
2023-01-19T01:28:47.088Z,3.58
2023-01-19T01:31:13.526Z,3.40
2023-01-19T01:33:41.997Z,3.13
2023-01-19T01:36:10.480Z,3.13
2023-01-19T01:38:37.694Z,3.80
2023-01-19T01:41:04.422Z,4.10
2023-01-19T01:43:53.410Z,3.10
2023-01-19T01:46:20.735Z,3.05
2023-01-19T01:49:11.962Z,3.20
2023-01-19T01:51:46.770Z,3.17
2023-01-19T01:54:21.509Z,3.10
2023-01-19T01:56:51.374Z,3.00
2023-01-19T01:59:28.051Z,3.40
2023-01-19T02:02:15.856Z,3.60
2023-01-19T02:04:49.115Z,4.55
2023-01-19T02:07:42.746Z,5.35
2023-01-19T02:10:28.531Z,5.43
2023-01-19T02:13:14.426Z,5.72
2023-01-19T02:15:40.830Z,6.50
2023-01-19T02:18:07.272Z,7.30
2023-01-19T02:20:35.737Z,7.40
2023-01-19T02:23:05.571Z,7.53
2023-01-19T02:25:32.192Z,7.88
2023-01-19T02:27:59.782Z,8.23
2023-01-19T02:30:27.323Z,8.48
2023-01-19T02:32:53.719Z,8.70
2023-01-19T02:35:21.024Z,9.17
2023-01-19T02:37:48.064Z,8.98
2023-01-19T02:40:20.066Z,8.90
2023-01-19T02:42:50.391Z,9.10
2023-01-19T02:45:20.482Z,9.10
2023-01-19T02:47:52.356Z,9.27
2023-01-19T02:50:45.973Z,8.82
2023-01-19T02:53:41.876Z,9.18
2023-01-19T02:56:46.271Z,9.85
2023-01-19T02:59:18.797Z,10.32
2023-01-19T03:02:04.780Z,9.93
2023-01-19T03:04:41.206Z,11.02
2023-01-19T03:07:16.031Z,11.05
2023-01-19T03:09:46.951Z,11.63
2023-01-19T03:12:26.854Z,10.75
2023-01-19T03:14:58.749Z,12.70
2023-01-19T03:17:27.541Z,12.80
2023-01-19T03:19:54.209Z,11.95
2023-01-19T03:22:29.449Z,12.13
2023-01-19T03:25:01.294Z,12.98
2023-01-19T03:27:32.153Z,12.40
2023-01-19T03:30:02.684Z,11.65
2023-01-19T03:32:35.566Z,11.80
2023-01-19T03:35:07.199Z,11.68
2023-01-19T03:37:36.236Z,12.05
2023-01-19T03:40:03.323Z,12.63
2023-01-19T03:42:29.715Z,12.20
2023-01-19T03:44:57.550Z,12.60
2023-01-19T03:47:25.410Z,12.60
2023-01-19T03:49:53.215Z,12.57
2023-01-19T03:52:28.400Z,12.70
2023-01-19T03:54:55.504Z,13.52
2023-01-19T03:57:22.843Z,12.23
2023-01-19T03:59:49.545Z,13.00
2023-01-19T04:02:16.019Z,12.98
2023-01-19T04:04:42.626Z,12.53
2023-01-19T04:07:10.873Z,12.68
2023-01-19T04:09:37.360Z,12.82
2023-01-19T04:12:04.251Z,12.80
2023-01-19T04:14:30.710Z,13.00
2023-01-19T04:16:57.187Z,12.33
2023-01-19T04:19:23.762Z,12.55
2023-01-19T04:21:50.959Z,11.98
2023-01-19T04:24:17.817Z,11.50
2023-01-19T04:26:44.428Z,12.07
2023-01-19T04:29:10.843Z,11.50
2023-01-19T04:31:37.381Z,11.25
2023-01-19T04:34:04.095Z,10.73
2023-01-19T04:36:31.319Z,10.55
2023-01-19T04:38:57.705Z,10.50
2023-01-19T04:41:24.048Z,10.33
2023-01-19T04:43:50.429Z,9.75
2023-01-19T04:46:16.879Z,8.40
2023-01-19T04:48:43.269Z,9.23
2023-01-19T04:51:09.955Z,9.38
2023-01-19T04:53:36.411Z,9.27
2023-01-19T04:56:02.832Z,9.23
2023-01-19T04:58:29.253Z,9.10
2023-01-19T05:00:55.678Z,8.60
2023-01-19T05:03:22.135Z,9.30
2023-01-19T05:05:48.525Z,8.83
2023-01-19T05:08:14.893Z,9.10
2023-01-19T05:10:41.254Z,8.98
2023-01-19T05:13:07.645Z,8.73
2023-01-19T05:15:35.488Z,9.38
2023-01-19T05:18:01.882Z,9.00
2023-01-19T05:20:28.383Z,8.90
2023-01-19T05:22:54.789Z,8.57
2023-01-19T05:25:21.259Z,8.73
2023-01-19T05:27:47.859Z,8.20
2023-01-19T05:30:14.516Z,9.40
2023-01-19T05:32:41.259Z,8.70
2023-01-19T05:35:08.440Z,8.68
2023-01-19T05:37:34.854Z,8.35
2023-01-19T05:40:01.254Z,8.75
2023-01-19T05:42:27.660Z,8.30
2023-01-19T05:44:54.033Z,8.80
2023-01-19T05:47:20.383Z,8.55
2023-01-19T05:49:46.751Z,7.93
2023-01-19T05:52:13.174Z,8.65
2023-01-19T05:54:40.371Z,7.97
2023-01-19T05:57:06.979Z,7.78
2023-01-19T05:59:33.351Z,8.07
2023-01-19T06:02:00.017Z,7.40
2023-01-19T06:04:26.843Z,7.50
2023-01-19T06:06:53.234Z,7.70
2023-01-19T06:09:19.593Z,7.38
2023-01-19T06:11:46.875Z,6.80
2023-01-19T06:14:13.412Z,6.57
2023-01-19T06:16:40.109Z,5.90
2023-01-19T06:19:06.563Z,6.40
2023-01-19T06:21:34.282Z,5.88
2023-01-19T06:24:00.669Z,5.00
2023-01-19T06:26:27.133Z,4.60
2023-01-19T06:28:53.556Z,3.50
2023-01-19T06:31:19.991Z,3.30
2023-01-19T06:33:46.886Z,3.03
2023-01-19T06:36:13.642Z,2.92
2023-01-19T06:38:40.270Z,2.60
2023-01-19T06:41:06.647Z,3.13
2023-01-19T06:43:33.008Z,2.57
2023-01-19T06:46:00.527Z,2.40
2023-01-19T06:48:27.117Z,2.10
2023-01-19T06:50:53.536Z,1.90
2023-01-19T06:53:22.116Z,2.05
2023-01-19T06:55:48.527Z,1.70
2023-01-19T06:58:16.164Z,1.60
2023-01-19T07:00:43.090Z,1.27
2023-01-19T07:03:18.884Z,1.10
2023-01-19T07:05:45.263Z,0.95
2023-01-19T07:08:11.814Z,0.80
2023-01-19T07:11:25.245Z,1.02
2023-01-19T07:13:24.612Z,0.80
2023-01-19T07:15:51.003Z,0.95
2023-01-19T07:18:17.372Z,0.90
2023-01-19T07:20:45.875Z,0.73
2023-01-19T07:23:12.274Z,0.55
2023-01-19T07:25:39.499Z,0.60
2023-01-19T07:28:05.849Z,0.70
2023-01-19T07:30:32.255Z,0.70
2023-01-19T07:32:59.202Z,0.90
2023-01-19T07:35:26.077Z,0.60
2023-01-19T07:37:52.600Z,0.60
2023-01-19T07:40:19.135Z,0.73
2023-01-19T07:42:48.490Z,0.70
2023-01-19T07:45:17.162Z,0.60
2023-01-19T07:47:44.752Z,0.70
2023-01-19T07:50:12.907Z,0.60
2023-01-19T07:52:39.578Z,1.05
2023-01-19T07:55:06.433Z,0.50
2023-01-19T07:57:32.803Z,0.50
2023-01-19T07:59:59.347Z,0.70
2023-01-19T08:02:25.864Z,0.60
2023-01-19T08:04:52.411Z,0.70
2023-01-19T08:07:18.842Z,0.93
2023-01-19T08:09:45.209Z,0.70
2023-01-19T08:12:11.582Z,0.50
2023-01-19T08:14:37.986Z,0.40
2023-01-19T08:17:04.390Z,0.60
2023-01-19T08:19:30.783Z,0.80
2023-01-19T08:21:58.888Z,0.70
2023-01-19T08:24:28.495Z,1.48
2023-01-19T08:27:02.633Z,0.60
2023-01-19T08:29:32.327Z,0.40
2023-01-19T08:32:00.138Z,0.57
2023-01-19T08:34:27.093Z,0.60
2023-01-19T08:36:53.475Z,1.05
2023-01-19T08:39:19.899Z,0.70
2023-01-19T08:41:46.357Z,0.82
2023-01-19T08:44:12.824Z,0.65
2023-01-19T08:46:39.243Z,0.67
2023-01-19T08:49:05.637Z,1.42
2023-01-19T08:51:31.995Z,0.88
2023-01-19T08:53:58.412Z,0.57
2023-01-19T08:56:25.699Z,0.55
2023-01-19T08:59:07.604Z,0.70
2023-01-19T09:01:36.975Z,0.50
2023-01-19T09:04:03.638Z,0.88
2023-01-19T09:06:30.039Z,0.68
2023-01-19T09:08:57.490Z,0.60
2023-01-19T09:11:24.005Z,1.23
2023-01-19T09:13:50.425Z,0.60
2023-01-19T09:16:16.871Z,0.60
2023-01-19T09:18:45.029Z,0.73
2023-01-19T09:21:12.073Z,0.80
2023-01-19T09:23:38.476Z,0.50
2023-01-19T09:26:06.397Z,0.65
2023-01-19T09:28:33.332Z,1.10
2023-01-19T09:30:59.987Z,0.77
2023-01-19T09:33:26.507Z,0.65
2023-01-19T09:35:52.997Z,0.90
2023-01-19T09:38:20.011Z,0.75
2023-01-19T09:40:53.500Z,0.60
2023-01-19T09:43:42.717Z,0.77
2023-01-19T09:46:25.260Z,0.70
2023-01-19T09:48:57.718Z,1.10
2023-01-19T09:51:27.762Z,1.35
2023-01-19T09:54:04.892Z,0.98
2023-01-19T09:56:32.811Z,0.90
2023-01-19T09:59:00.321Z,1.20
2023-01-19T10:02:05.663Z,1.20
2023-01-19T10:04:41.331Z,0.95
2023-01-19T10:07:20.226Z,1.27
2023-01-19T10:10:02.863Z,1.10
2023-01-19T10:12:51.768Z,1.13
2023-01-19T10:15:50.845Z,1.10
2023-01-19T10:18:22.363Z,1.13
2023-01-19T10:20:51.850Z,1.05
2023-01-19T10:23:56.402Z,1.08
2023-01-19T10:26:27.090Z,0.70
2023-01-19T10:28:58.214Z,0.90
2023-01-19T10:31:24.947Z,1.10
2023-01-19T10:33:52.517Z,1.00
2023-01-19T10:36:28.588Z,0.85
2023-01-19T10:38:55.048Z,1.25
2023-01-19T10:41:38.063Z,1.10
2023-01-19T10:44:05.520Z,1.17
2023-01-19T10:46:45.539Z,1.40
2023-01-19T10:49:31.406Z,1.10
2023-01-19T10:51:59.829Z,1.00
2023-01-19T10:54:28.126Z,1.10
2023-01-19T10:56:57.698Z,1.40
2023-01-19T10:59:46.343Z,0.95
2023-01-19T11:02:26.255Z,1.25
2023-01-19T11:04:59.102Z,1.13
2023-01-19T11:07:33.584Z,0.87
2023-01-19T11:10:20.753Z,1.30
2023-01-19T11:13:07.535Z,0.98
2023-01-19T11:15:50.847Z,1.23
2023-01-19T11:18:29.319Z,0.80
2023-01-19T11:21:00.938Z,1.20
2023-01-19T11:23:31.115Z,1.08
2023-01-19T11:26:00.529Z,1.17
2023-01-19T11:28:34.903Z,0.98
2023-01-19T11:31:22.703Z,1.17
2023-01-19T11:33:51.979Z,1.00
2023-01-19T11:36:33.263Z,1.20
2023-01-19T11:39:21.230Z,0.80
2023-01-19T11:41:51.855Z,0.80
2023-01-19T11:44:23.428Z,1.05
2023-01-19T11:46:54.655Z,1.00
2023-01-19T11:49:24.066Z,0.70
2023-01-19T11:52:05.589Z,0.88
2023-01-19T11:54:41.353Z,0.93
2023-01-19T11:57:13.535Z,0.90
2023-01-19T11:59:39.915Z,1.10
2023-01-19T12:02:20.652Z,1.30
2023-01-19T12:04:49.216Z,0.80
2023-01-19T12:07:28.831Z,1.00
2023-01-19T12:10:06.318Z,0.98
2023-01-19T12:12:36.486Z,0.80
2023-01-19T12:15:18.300Z,1.02
2023-01-19T12:17:49.678Z,0.80
2023-01-19T12:20:24.654Z,0.93
2023-01-19T12:23:01.042Z,0.80
2023-01-19T12:25:45.583Z,0.60
2023-01-19T12:28:15.848Z,0.77
2023-01-19T12:30:42.448Z,1.08
2023-01-19T12:33:34.365Z,1.38
2023-01-19T12:36:10.449Z,0.90
2023-01-19T12:39:07.627Z,0.60
2023-01-19T12:41:38.879Z,0.60
2023-01-19T12:44:11.397Z,0.82
2023-01-19T12:46:38.924Z,0.50
2023-01-19T12:49:11.065Z,0.50
2023-01-19T12:51:38.076Z,0.50
2023-01-19T12:54:07.967Z,0.80
2023-01-19T12:56:37.371Z,0.60
2023-01-19T12:59:05.145Z,0.70
2023-01-19T13:01:31.570Z,1.00
2023-01-19T13:04:09.320Z,0.50
2023-01-19T13:06:47.978Z,0.98
2023-01-19T13:09:31.977Z,0.70
2023-01-19T13:12:30.565Z,0.50
2023-01-19T13:15:33.686Z,0.55
2023-01-19T13:18:01.430Z,0.50
2023-01-19T13:20:34.862Z,0.55
2023-01-19T13:23:23.318Z,0.50
2023-01-19T13:25:53.348Z,0.50
2023-01-19T13:28:30.220Z,0.57
2023-01-19T13:31:00.329Z,0.77
2023-01-19T13:33:30.049Z,0.50
2023-01-19T13:35:58.706Z,0.40
2023-01-19T13:38:27.783Z,0.40
2023-01-19T13:40:56.453Z,0.43
2023-01-19T13:43:30.986Z,0.30
2023-01-19T13:45:57.923Z,0.40
2023-01-19T13:48:25.688Z,0.30
2023-01-19T13:51:01.058Z,0.40
2023-01-19T13:53:29.356Z,0.60
2023-01-19T13:56:07.174Z,0.40
2023-01-19T13:58:33.879Z,0.50
2023-01-19T14:01:01.322Z,0.50
2023-01-19T14:03:27.882Z,0.57
2023-01-19T14:05:54.981Z,0.30
2023-01-19T14:08:22.843Z,0.47
2023-01-19T14:10:56.240Z,0.40
2023-01-19T14:13:26.227Z,0.45
2023-01-19T14:15:57.164Z,0.50
2023-01-19T14:18:25.427Z,0.50
2023-01-19T14:21:06.001Z,0.43
2023-01-19T14:23:40.255Z,0.40
2023-01-19T14:26:43.601Z,0.40
2023-01-19T14:29:09.910Z,0.70
2023-01-19T14:31:43.947Z,0.55
2023-01-19T14:34:43.091Z,0.50
2023-01-19T14:37:29.548Z,0.50
2023-01-19T14:40:18.445Z,0.50
2023-01-19T14:42:53.114Z,0.50
2023-01-19T14:45:23.628Z,0.50
2023-01-19T14:47:57.335Z,0.50
2023-01-19T14:50:27.606Z,0.57
2023-01-19T14:53:00.823Z,0.63
2023-01-19T14:55:38.141Z,0.50
2023-01-19T14:58:12.265Z,0.40
2023-01-19T15:00:39.956Z,0.60
2023-01-19T15:03:06.436Z,0.40
2023-01-19T15:05:33.579Z,0.40
2023-01-19T15:08:02.786Z,0.60
2023-01-19T15:10:29.892Z,0.50
2023-01-19T15:12:56.879Z,0.40
2023-01-19T15:15:33.818Z,0.45
2023-01-19T15:18:02.752Z,0.70
2023-01-19T15:20:29.387Z,0.65
2023-01-19T15:22:55.757Z,0.68
2023-01-19T15:25:27.071Z,0.80
2023-01-19T15:27:58.403Z,0.82
2023-01-19T15:30:33.596Z,0.60
2023-01-19T15:33:00.103Z,0.63
2023-01-19T15:35:26.544Z,0.50
2023-01-19T15:37:53.022Z,0.60
2023-01-19T15:40:19.974Z,1.00
2023-01-19T15:42:46.658Z,0.70
2023-01-19T15:45:33.463Z,0.70
2023-01-19T15:48:10.983Z,0.63
2023-01-19T15:50:40.442Z,0.60
2023-01-19T15:53:07.458Z,0.70
2023-01-19T15:55:33.935Z,0.63
2023-01-19T15:58:03.604Z,0.80
2023-01-19T16:00:31.858Z,0.68
2023-01-19T16:02:59.245Z,0.70
2023-01-19T16:05:37.426Z,0.55
2023-01-19T16:08:08.084Z,0.73
2023-01-19T16:10:35.536Z,0.63
2023-01-19T16:13:03.274Z,0.77
2023-01-19T16:15:29.670Z,0.40
2023-01-19T16:17:56.047Z,0.57
2023-01-19T16:20:22.442Z,0.60
2023-01-19T16:22:48.827Z,0.70
2023-01-19T16:25:15.280Z,0.50
2023-01-19T16:27:42.023Z,0.60
2023-01-19T16:30:11.924Z,0.60
2023-01-19T16:32:38.694Z,0.90
2023-01-19T16:35:05.588Z,0.85
2023-01-19T16:37:31.990Z,0.98
2023-01-19T16:39:58.428Z,0.70
2023-01-19T16:42:24.903Z,0.80
2023-01-19T16:44:51.862Z,1.02
2023-01-19T16:47:18.288Z,0.60
2023-01-19T16:49:44.630Z,0.88
2023-01-19T16:52:11.097Z,1.00
2023-01-19T16:54:39.399Z,0.93
2023-01-19T16:57:05.878Z,0.90
2023-01-19T16:59:32.438Z,0.98
2023-01-19T17:01:59.025Z,1.02
2023-01-19T17:04:27.044Z,1.10
2023-01-19T17:06:54.595Z,1.10
2023-01-19T17:09:21.315Z,1.52
2023-01-19T17:11:47.906Z,1.10
2023-01-19T17:14:17.240Z,1.20
2023-01-19T17:16:44.133Z,0.90
2023-01-19T17:19:14.819Z,1.00
2023-01-19T17:21:41.202Z,1.00
2023-01-19T17:24:07.692Z,1.48
2023-01-19T17:26:34.886Z,1.15
2023-01-19T17:29:02.470Z,1.20
2023-01-19T17:31:30.035Z,1.08
2023-01-19T17:33:56.580Z,1.40
2023-01-19T17:36:25.273Z,0.98
2023-01-19T17:38:52.904Z,1.10
2023-01-19T17:41:25.744Z,1.43
2023-01-19T17:43:52.710Z,2.28
2023-01-19T17:46:21.064Z,1.10
2023-01-19T17:48:54.949Z,1.20
2023-01-19T17:51:24.779Z,0.93
2023-01-19T17:53:52.277Z,1.50
2023-01-19T17:56:26.136Z,1.35
2023-01-19T17:58:52.521Z,1.20
2023-01-19T18:01:22.235Z,1.63
2023-01-19T18:03:49.027Z,1.90
2023-01-19T18:06:16.251Z,2.57
2023-01-19T18:08:46.045Z,2.25
2023-01-19T18:11:13.554Z,2.30
2023-01-19T18:13:42.833Z,2.20
2023-01-19T18:16:12.848Z,2.00
2023-01-19T18:18:40.438Z,2.63
2023-01-19T18:21:09.883Z,1.60
2023-01-19T18:23:36.926Z,2.25
2023-01-19T18:26:09.084Z,1.88
2023-01-19T18:28:35.535Z,1.70
2023-01-19T18:31:02.979Z,2.77
2023-01-19T18:33:31.305Z,2.53
2023-01-19T18:35:57.691Z,2.00
2023-01-19T18:38:24.228Z,1.73
2023-01-19T18:41:13.119Z,1.67
2023-01-19T18:43:39.773Z,1.53
2023-01-19T18:46:06.785Z,1.63
2023-01-19T18:48:33.527Z,2.28
2023-01-19T18:51:03.384Z,1.80
2023-01-19T18:53:31.525Z,2.05
2023-01-19T18:55:59.640Z,2.50
2023-01-19T18:58:29.093Z,1.85
2023-01-19T19:00:56.348Z,1.80
2023-01-19T19:03:23.197Z,1.70
2023-01-19T19:05:49.637Z,1.70
2023-01-19T19:08:16.021Z,1.80
2023-01-19T19:10:43.060Z,1.80
2023-01-19T19:13:12.081Z,2.15
2023-01-19T19:15:38.816Z,2.28
2023-01-19T19:18:05.415Z,2.00
2023-01-19T19:20:31.761Z,1.83
2023-01-19T19:22:58.126Z,1.90
2023-01-19T19:25:24.499Z,1.70
2023-01-19T19:27:52.000Z,2.08
2023-01-19T19:30:19.905Z,1.77
2023-01-19T19:32:56.036Z,1.60
2023-01-19T19:35:23.364Z,1.77
2023-01-19T19:37:50.024Z,1.90
2023-01-19T19:40:16.714Z,1.95
2023-01-19T19:42:43.083Z,2.15
2023-01-19T19:45:10.133Z,2.20
2023-01-19T19:47:36.514Z,2.10
2023-01-19T19:50:02.933Z,2.40
2023-01-19T19:52:29.345Z,2.42
2023-01-19T19:54:55.820Z,2.42
2023-01-19T19:57:22.253Z,2.40
2023-01-19T19:59:48.618Z,2.65
2023-01-19T20:02:14.978Z,2.38
2023-01-19T20:04:41.382Z,2.10
2023-01-19T20:07:07.766Z,2.83
2023-01-19T20:09:35.863Z,2.50
2023-01-19T20:12:02.296Z,2.83
2023-01-19T20:14:28.672Z,3.13
2023-01-19T20:16:55.159Z,2.80
2023-01-19T20:19:21.567Z,2.88
2023-01-19T20:21:47.956Z,3.10
2023-01-19T20:24:17.271Z,2.78
2023-01-19T20:26:50.359Z,2.83
2023-01-19T20:29:17.193Z,2.72
2023-01-19T20:31:56.809Z,2.95
2023-01-19T20:34:27.307Z,2.47
2023-01-19T20:36:53.933Z,2.90
2023-01-19T20:39:22.089Z,2.50
2023-01-19T20:41:50.990Z,4.05
2023-01-19T20:44:20.965Z,2.53
2023-01-19T20:46:48.467Z,2.77
2023-01-19T20:49:15.222Z,2.50
2023-01-19T20:51:44.786Z,2.30
2023-01-19T20:54:12.459Z,2.60
2023-01-19T20:56:41.083Z,2.80
2023-01-19T20:59:08.970Z,2.17
2023-01-19T21:01:35.856Z,2.60
2023-01-19T21:04:02.473Z,2.60
2023-01-19T21:06:28.979Z,2.60
2023-01-19T21:08:55.402Z,2.35
2023-01-19T21:11:23.935Z,2.50
2023-01-19T21:13:55.442Z,2.00
2023-01-19T21:16:23.792Z,2.15
2023-01-19T21:18:50.666Z,2.20
2023-01-19T21:21:29.374Z,2.35
2023-01-19T21:23:58.146Z,2.40
2023-01-19T21:26:24.526Z,2.10
2023-01-19T21:28:50.992Z,2.47
2023-01-19T21:31:17.670Z,2.10
2023-01-19T21:33:44.162Z,2.03
2023-01-19T21:36:11.211Z,2.23
2023-01-19T21:38:38.427Z,2.13
2023-01-19T21:41:07.581Z,2.20
2023-01-19T21:43:36.528Z,2.22
2023-01-19T21:46:10.784Z,2.60
2023-01-19T21:48:37.224Z,2.30
2023-01-19T21:51:03.763Z,2.30
2023-01-19T21:53:30.195Z,2.47
2023-01-19T21:55:56.938Z,2.38
2023-01-19T21:58:23.805Z,2.50
2023-01-19T22:00:50.530Z,1.87
2023-01-19T22:03:17.149Z,2.05
2023-01-19T22:05:43.587Z,2.00
2023-01-19T22:08:10.259Z,2.50
2023-01-19T22:10:37.497Z,2.70
2023-01-19T22:13:06.475Z,2.70
2023-01-19T22:15:32.897Z,2.75
2023-01-19T22:17:59.333Z,2.55
2023-01-19T22:20:25.799Z,2.65
2023-01-19T22:22:52.247Z,2.63
2023-01-19T22:25:21.972Z,2.50
2023-01-19T22:27:48.366Z,2.63
2023-01-19T22:30:14.969Z,2.42
2023-01-19T22:32:42.290Z,2.70
2023-01-19T22:35:08.828Z,2.63
2023-01-19T22:37:36.429Z,2.90
2023-01-19T22:40:04.333Z,2.58
2023-01-19T22:42:33.251Z,2.80
2023-01-19T22:45:01.019Z,2.55
2023-01-19T22:47:27.383Z,2.33
2023-01-19T22:49:58.307Z,1.90
2023-01-19T22:52:29.307Z,2.10
2023-01-19T22:54:59.285Z,2.30
2023-01-19T22:57:35.658Z,1.90
2023-01-19T23:00:08.552Z,2.10
2023-01-19T23:02:36.962Z,2.33
2023-01-19T23:05:08.352Z,1.90
2023-01-19T23:07:37.968Z,1.83
2023-01-19T23:10:04.744Z,2.17
2023-01-19T23:12:33.161Z,2.00
2023-01-19T23:15:01.780Z,2.30
2023-01-19T23:17:33.428Z,2.05
2023-01-19T23:19:59.873Z,2.10
2023-01-19T23:22:26.253Z,2.47
2023-01-19T23:24:55.434Z,2.53
2023-01-19T23:27:21.983Z,2.10
2023-01-19T23:29:54.944Z,2.70
2023-01-19T23:32:30.972Z,2.70
2023-01-19T23:34:57.340Z,2.53
2023-01-19T23:37:23.765Z,2.80
2023-01-19T23:39:50.140Z,2.60
2023-01-19T23:42:16.535Z,2.55
2023-01-19T23:44:43.946Z,2.90
2023-01-19T23:47:10.367Z,2.42
2023-01-19T23:49:36.847Z,2.75
2023-01-19T23:52:03.330Z,2.83
2023-01-19T23:54:29.703Z,2.50
2023-01-19T23:56:56.081Z,2.70
2023-01-19T23:59:22.444Z,2.92
